Time;durP1;ratioP1;P1;durP2;ratioP2;P2;SDS_P1;SDS_P2;PMS_P1;PMS_P2;Temp;Humidity;BMP_temperature;BMP_pressure;BME280_temperature;BME280_humidity;BME280_pressure;Samples;Min_cycle;Max_cycle;Signal;HPM_P1;HPM_P2
2021/12/14 00:00:43;;;;;;;39.70;16.77;;;9.40;99.90;;;;;;4942011;28;112744;-68
2021/12/14 00:03:11;;;;;;;33.78;16.58;;;9.40;99.90;;;;;;4959955;28;113644;-68
2021/12/14 00:05:37;;;;;;;30.08;16.48;;;9.40;99.90;;;;;;4950567;28;113534;-69
2021/12/14 00:08:07;;;;;;;35.70;17.63;;;9.40;99.90;;;;;;4954825;28;112697;-67
2021/12/14 00:13:11;;;;;;;40.30;17.35;;;9.40;99.90;;;;;;4952931;28;113052;-68
2021/12/14 00:15:37;;;;;;;45.33;17.70;;;9.40;99.90;;;;;;4949492;28;113223;-68
2021/12/14 00:18:07;;;;;;;34.53;15.05;;;9.40;99.90;;;;;;4956240;28;112517;-68
2021/12/14 00:20:47;;;;;;;28.27;13.48;;;9.30;99.90;;;;;;4956908;28;113334;-68
2021/12/14 00:25:46;;;;;;;29.73;14.87;;;9.20;99.90;;;;;;4929614;28;114347;-68
2021/12/14 00:28:15;;;;;;;;;;;9.20;99.90;;;;;;4953643;28;112571;-68
2021/12/14 00:30:42;;;;;;;26.40;13.35;;;9.10;99.90;;;;;;4935856;28;113548;-68
2021/12/14 00:33:12;;;;;;;21.33;11.70;;;9.00;99.90;;;;;;4952750;28;113484;-68
2021/12/14 00:35:39;;;;;;;24.58;11.38;;;9.00;99.90;;;;;;4927215;28;114787;-67
2021/12/14 00:38:05;;;;;;;30.25;12.80;;;8.90;99.90;;;;;;4950115;28;112369;-68
2021/12/14 00:40:36;;;;;;;25.65;12.23;;;8.80;99.90;;;;;;4937758;28;112423;-68
2021/12/14 00:43:02;;;;;;;28.77;13.60;;;8.80;99.90;;;;;;4951606;28;113443;-67
2021/12/14 00:45:31;;;;;;;26.05;11.63;;;8.70;99.90;;;;;;4958687;28;112548;-68
2021/12/14 00:47:58;;;;;;;29.13;13.00;;;8.70;99.90;;;;;;4936284;28;112564;-67
2021/12/14 00:50:26;;;;;;;36.35;13.25;;;8.70;99.90;;;;;;4959584;28;112636;-67
2021/12/14 00:52:53;;;;;;;25.08;12.13;;;8.70;99.90;;;;;;4951817;28;113442;-67
2021/12/14 00:55:25;;;;;;;31.30;13.63;;;8.70;99.90;;;;;;4953567;28;112750;-67
2021/12/14 00:57:52;;;;;;;24.52;13.13;;;8.70;99.90;;;;;;4942627;28;112735;-67
2021/12/14 01:00:30;;;;;;;24.08;11.63;;;8.60;99.90;;;;;;4952284;28;112650;-68
2021/12/14 01:02:56;;;;;;;30.88;12.80;;;8.60;99.90;;;;;;4923405;28;115132;-68
2021/12/14 01:05:31;;;;;;;29.95;11.90;;;8.60;99.90;;;;;;4936260;28;113018;-68
2021/12/14 01:07:59;;;;;;;28.52;12.63;;;8.60;99.90;;;;;;4928875;28;112739;-66
2021/12/14 01:10:31;;;;;;;23.05;12.23;;;8.60;99.90;;;;;;4904631;28;112713;-68
2021/12/14 01:13:03;;;;;;;31.60;13.13;;;8.60;99.90;;;;;;4929858;28;113910;-68
2021/12/14 01:16:01;;;;;;;28.65;13.50;;;8.60;99.90;;;;;;4929080;28;113026;-66
2021/12/14 01:21:27;;;;;;;23.75;11.98;;;8.60;99.90;;;;;;4926170;28;112552;-69
2021/12/14 01:24:03;;;;;;;33.00;13.40;;;8.50;99.90;;;;;;4931205;28;113047;-68
2021/12/14 01:26:32;;;;;;;30.08;13.20;;;8.60;99.90;;;;;;4939666;28;112552;-67
2021/12/14 01:29:00;;;;;;;35.30;13.60;;;8.60;99.90;;;;;;4930033;28;112414;-67
2021/12/14 01:31:34;;;;;;;32.55;14.07;;;8.60;99.90;;;;;;4930159;28;112757;-67
2021/12/14 01:34:08;;;;;;;36.10;13.52;;;8.60;99.90;;;;;;4932295;28;114694;-66
2021/12/14 01:36:45;;;;;;;28.00;11.70;;;8.60;99.90;;;;;;4924667;28;113718;-68
2021/12/14 01:41:49;;;;;;;23.95;10.27;;;8.60;99.90;;;;;;4937687;28;114390;-68
2021/12/14 01:44:15;;;;;;;24.50;11.55;;;8.60;99.90;;;;;;4903690;28;113678;-68
2021/12/14 01:46:55;;;;;;;26.20;9.82;;;8.60;99.90;;;;;;4933255;28;113125;-68
2021/12/14 01:49:24;;;;;;;20.30;9.98;;;8.60;99.90;;;;;;4932600;28;113225;-66
2021/12/14 01:51:53;;;;;;;34.42;8.93;;;8.50;99.90;;;;;;4939598;28;112377;-66
2021/12/14 01:54:24;;;;;;;21.13;10.15;;;8.50;99.90;;;;;;4935087;28;113320;-66
2021/12/14 01:56:51;;;;;;;24.17;8.82;;;8.50;99.90;;;;;;4929915;28;113048;-68
2021/12/14 01:59:25;;;;;;;21.58;8.90;;;8.40;99.90;;;;;;4940397;28;112588;-68
2021/12/14 02:02:09;;;;;;;22.35;8.15;;;8.40;99.90;;;;;;4944059;28;112693;-67
2021/12/14 02:04:40;;;;;;;23.98;9.65;;;8.30;99.90;;;;;;4962717;28;113378;-66
2021/12/14 02:07:08;;;;;;;21.08;9.52;;;8.30;99.90;;;;;;4929731;28;115669;-67
2021/12/14 02:09:35;;;;;;;19.00;8.07;;;8.20;99.90;;;;;;4963453;28;112574;-67
2021/12/14 02:12:10;;;;;;;24.27;8.75;;;8.20;99.90;;;;;;4962442;28;113604;-67
2021/12/14 02:14:37;;;;;;;18.25;8.43;;;8.20;99.90;;;;;;4936523;28;113546;-68
2021/12/14 02:17:05;;;;;;;20.23;8.73;;;8.20;99.90;;;;;;4928986;28;113351;-67
2021/12/14 02:19:32;;;;;;;21.85;9.25;;;8.10;99.90;;;;;;4949778;28;113685;-67
2021/12/14 02:22:01;;;;;;;22.73;8.95;;;8.10;99.90;;;;;;4952401;28;112551;-68
2021/12/14 02:24:29;;;;;;;17.67;7.90;;;8.10;99.90;;;;;;4944309;28;113579;-68
2021/12/14 02:26:56;;;;;;;21.40;9.63;;;8.10;99.90;;;;;;4946660;28;112908;-67
2021/12/14 02:29:30;;;;;;;19.67;8.93;;;8.10;99.90;;;;;;4955465;28;112464;-66
2021/12/14 02:32:09;;;;;;;15.77;8.05;;;8.10;99.90;;;;;;4928374;28;112537;-68
2021/12/14 02:34:44;;;;;;;27.37;9.60;;;8.10;99.90;;;;;;4957922;28;113583;-67
2021/12/14 02:37:11;;;;;;;20.42;8.73;;;8.10;99.90;;;;;;4936279;28;115377;-67
2021/12/14 02:42:24;;;;;;;18.42;8.35;;;8.00;99.90;;;;;;4954820;28;114601;-66
2021/12/14 02:44:53;;;;;;;21.80;9.10;;;8.00;99.90;;;;;;4941234;28;116476;-67
2021/12/14 02:47:21;;;;;;;18.80;9.30;;;8.00;99.90;;;;;;4961822;28;112926;-68
2021/12/14 02:49:49;;;;;;;28.17;10.32;;;8.00;99.90;;;;;;4961935;28;112856;-67
2021/12/14 02:52:37;;;;;;;18.88;9.10;;;8.00;99.90;;;;;;4954696;28;112660;-67
2021/12/14 02:55:15;;;;;;;20.17;8.98;;;8.00;99.90;;;;;;4960832;28;114094;-67
2021/12/14 02:57:45;;;;;;;20.65;8.73;;;7.90;99.90;;;;;;4929976;28;115962;-67
2021/12/14 03:00:18;;;;;;;18.52;9.07;;;7.90;99.90;;;;;;4955315;28;113064;-67
2021/12/14 03:02:45;;;;;;;21.42;9.77;;;7.90;99.90;;;;;;4944732;28;112621;-66
2021/12/14 03:05:22;;;;;;;22.33;9.45;;;7.80;99.90;;;;;;4953898;28;113253;-68
2021/12/14 03:07:57;;;;;;;15.90;8.80;;;7.80;99.90;;;;;;4954244;28;112964;-67
2021/12/14 03:13:02;;;;;;;20.23;9.82;;;7.70;99.90;;;;;;4953423;28;112594;-67
2021/12/14 03:15:34;;;;;;;;;;;7.70;99.90;;;;;;4941453;28;116830;-67
2021/12/14 03:18:07;;;;;;;19.48;8.95;;;7.70;99.90;;;;;;4958697;28;113336;-67
2021/12/14 03:20:40;;;;;;;14.88;8.27;;;7.70;99.90;;;;;;4952619;28;112902;-67
2021/12/14 03:23:11;;;;;;;15.93;8.32;;;7.70;99.90;;;;;;4961324;28;112378;-68
2021/12/14 03:25:42;;;;;;;16.70;7.97;;;7.70;99.90;;;;;;4938511;28;114929;-68
2021/12/14 03:28:10;;;;;;;18.17;8.55;;;7.70;99.90;;;;;;4950502;28;112932;-67
2021/12/14 03:30:50;;;;;;;23.02;10.13;;;7.70;99.90;;;;;;4961561;28;113870;-67
2021/12/14 03:33:23;;;;;;;;;;;7.70;99.90;;;;;;4955785;28;114630;-67
2021/12/14 03:36:12;;;;;;;15.50;9.13;;;7.70;99.90;;;;;;4962676;28;113138;-67
2021/12/14 03:38:40;;;;;;;20.90;11.50;;;7.70;99.90;;;;;;4945555;28;112734;-67
2021/12/14 03:41:23;;;;;;;28.17;11.25;;;7.70;99.90;;;;;;4951782;28;112598;-69
2021/12/14 03:43:57;;;;;;;23.13;9.73;;;7.70;99.90;;;;;;4956648;28;112387;-68
2021/12/14 03:46:27;;;;;;;17.38;9.55;;;7.70;99.90;;;;;;4951544;28;114360;-67
2021/12/14 03:48:54;;;;;;;;;;;7.70;99.90;;;;;;4960205;28;112922;-68
2021/12/14 03:51:22;;;;;;;23.60;10.98;;;7.70;99.90;;;;;;4948313;28;112674;-68
2021/12/14 03:53:55;;;;;;;27.77;10.10;;;7.70;99.90;;;;;;4961618;28;112588;-67
2021/12/14 03:56:22;;;;;;;23.02;10.32;;;7.70;99.90;;;;;;4956115;28;113974;-64
2021/12/14 03:58:49;;;;;;;22.38;10.30;;;7.70;99.90;;;;;;4936072;28;113613;-67
2021/12/14 04:01:36;;;;;;;22.50;11.18;;;7.70;99.90;;;;;;4973611;22;113848;-64
2021/12/14 04:04:16;;;;;;;26.52;11.32;;;7.70;99.90;;;;;;4961861;28;112642;-63
2021/12/14 04:06:44;;;;;;;27.02;11.43;;;7.70;99.90;;;;;;4953333;28;113705;-65
2021/12/14 04:09:13;;;;;;;23.75;10.60;;;7.70;99.90;;;;;;4957741;28;112975;-64
2021/12/14 04:11:40;;;;;;;25.42;11.57;;;7.70;99.90;;;;;;4959156;28;112627;-64
2021/12/14 04:14:07;;;;;;;22.00;10.07;;;7.70;99.90;;;;;;4957008;28;112819;-65
2021/12/14 04:16:35;;;;;;;23.73;11.70;;;7.70;99.90;;;;;;4958130;28;113771;-64
2021/12/14 04:19:06;;;;;;;20.35;10.60;;;7.70;99.90;;;;;;4959904;28;112762;-64
2021/12/14 04:21:38;;;;;;;25.30;11.02;;;7.60;99.90;;;;;;4958663;28;114932;-64
2021/12/14 04:24:05;;;;;;;23.58;11.30;;;7.70;99.90;;;;;;4968931;23;115454;-64
2021/12/14 04:26:32;;;;;;;24.42;11.40;;;7.70;99.90;;;;;;4944710;28;114325;-62
2021/12/14 04:28:59;;;;;;;20.52;10.48;;;7.70;99.90;;;;;;4959961;28;113060;-61
2021/12/14 04:31:25;;;;;;;23.77;12.32;;;7.70;99.90;;;;;;4958954;28;112462;-61
2021/12/14 04:33:53;;;;;;;18.23;9.32;;;7.60;99.90;;;;;;4961157;28;112437;-63
2021/12/14 04:36:25;;;;;;;29.20;10.75;;;7.60;99.90;;;;;;4960225;28;113632;-63
2021/12/14 04:38:57;;;;;;;20.67;9.95;;;7.60;99.90;;;;;;4959994;28;113096;-62
2021/12/14 04:52:31;;;;;;;19.42;9.98;;;7.60;99.90;;;;;;4959517;28;114000;-61
2021/12/14 04:55:02;;;;;;;19.42;8.82;;;7.60;99.90;;;;;;4961723;28;113715;-63
2021/12/14 04:57:45;;;;;;;29.92;9.70;;;7.70;99.90;;;;;;4960004;28;113577;-63
2021/12/14 05:00:19;;;;;;;21.90;8.88;;;7.70;99.90;;;;;;4951223;28;112560;-62
2021/12/14 05:02:46;;;;;;;27.63;9.32;;;7.80;99.90;;;;;;4959172;28;112623;-62
2021/12/14 05:05:22;;;;;;;21.63;9.77;;;7.90;99.90;;;;;;4960900;28;112397;-62
2021/12/14 05:11:09;;;;;;;30.35;11.80;;;7.90;99.90;;;;;;4901874;28;112560;-65
2021/12/14 05:13:48;;;;;;;23.40;10.57;;;8.00;99.90;;;;;;4947284;28;112625;-62
2021/12/14 05:16:23;;;;;;;29.02;10.27;;;8.00;99.90;;;;;;4969340;22;115706;-64
2021/12/14 05:18:59;;;;;;;21.75;9.38;;;8.00;99.90;;;;;;4962463;28;113393;-64
2021/12/14 05:21:29;;;;;;;27.63;9.65;;;8.00;99.90;;;;;;4959637;28;113576;-66
2021/12/14 05:23:56;;;;;;;27.25;10.05;;;8.10;99.90;;;;;;4960516;28;113207;-66
2021/12/14 05:26:22;;;;;;;29.02;10.73;;;8.10;99.90;;;;;;4959354;28;113559;-64
2021/12/14 05:28:49;;;;;;;55.67;10.60;;;8.20;99.90;;;;;;4959539;28;114352;-63
2021/12/14 05:31:15;;;;;;;24.70;10.27;;;8.20;99.90;;;;;;4958630;28;114868;-64
2021/12/14 05:33:42;;;;;;;24.02;9.77;;;8.30;99.90;;;;;;4960389;28;113553;-64
2021/12/14 05:36:14;;;;;;;26.73;9.93;;;8.30;99.90;;;;;;4939330;22;114180;-68
2021/12/14 05:38:58;;;;;;;30.58;11.25;;;8.40;99.90;;;;;;4932716;28;116065;-67
2021/12/14 05:44:25;;;;;;;31.17;11.48;;;8.40;99.90;;;;;;4943950;28;112424;-67
2021/12/14 05:46:55;;;;;;;41.50;11.65;;;8.50;99.90;;;;;;4928704;28;112932;-67
2021/12/14 05:49:27;;;;;;;39.83;13.82;;;8.50;99.90;;;;;;4930019;28;113213;-68
2021/12/14 05:51:55;;;;;;;53.38;15.23;;;8.50;99.90;;;;;;4907605;28;115827;-67
2021/12/14 05:54:28;;;;;;;50.22;15.70;;;8.50;99.90;;;;;;4939720;28;112654;-68
2021/12/14 05:56:56;;;;;;;59.35;18.40;;;8.50;99.90;;;;;;4939531;28;112676;-67
2021/12/14 05:59:25;;;;;;;59.78;16.98;;;8.60;99.90;;;;;;4924329;28;113176;-67
2021/12/14 06:01:53;;;;;;;56.05;17.02;;;8.50;99.90;;;;;;4936135;28;112866;-67
2021/12/14 06:04:19;;;;;;;65.32;19.15;;;8.50;99.90;;;;;;4926740;28;112380;-67
2021/12/14 06:06:52;;;;;;;64.65;19.40;;;8.60;99.90;;;;;;4942364;28;113518;-67
2021/12/14 06:09:30;;;;;;;70.50;20.00;;;8.50;99.90;;;;;;4942949;28;114064;-67
2021/12/14 06:12:00;;;;;;;66.13;18.13;;;8.60;99.90;;;;;;4934558;28;112681;-67
2021/12/14 06:14:28;;;;;;;55.10;17.63;;;8.60;99.90;;;;;;4935530;28;112969;-68
2021/12/14 06:17:00;;;;;;;62.63;18.67;;;8.60;99.90;;;;;;4906246;28;112710;-67
2021/12/14 06:19:31;;;;;;;69.57;21.30;;;8.60;99.90;;;;;;4909205;28;114130;-68
2021/12/14 06:22:17;;;;;;;76.43;18.90;;;8.70;99.90;;;;;;4935457;28;112701;-70
2021/12/14 06:24:50;;;;;;;61.55;18.85;;;8.70;99.90;;;;;;4938388;28;112948;-68
2021/12/14 06:27:19;;;;;;;63.00;22.75;;;8.70;99.90;;;;;;4924812;28;112607;-66
2021/12/14 06:29:52;;;;;;;71.43;20.60;;;8.80;99.90;;;;;;4934789;28;113072;-68
2021/12/14 06:32:25;;;;;;;59.00;17.45;;;8.80;99.90;;;;;;4939052;28;112525;-67
2021/12/14 06:35:11;;;;;;;64.07;20.52;;;8.90;99.90;;;;;;4940423;28;113961;-67
2021/12/14 06:38:09;;;;;;;55.83;22.00;;;8.80;99.90;;;;;;4937537;28;114550;-67
2021/12/14 06:40:37;;;;;;;64.15;22.33;;;8.80;99.90;;;;;;4930974;28;115278;-67
2021/12/14 06:43:10;;;;;;;68.18;25.15;;;8.80;99.90;;;;;;4926175;28;113540;-67
2021/12/14 06:45:45;;;;;;;72.07;22.20;;;8.80;99.90;;;;;;4942612;28;112480;-67
2021/12/14 06:48:16;;;;;;;64.20;22.48;;;8.80;99.90;;;;;;4924893;28;112606;-67
2021/12/14 06:51:24;;;;;;;69.93;22.77;;;8.80;99.90;;;;;;4928456;28;112948;-67
2021/12/14 06:53:55;;;;;;;72.05;23.25;;;8.80;99.90;;;;;;4902018;28;115522;-66
2021/12/14 06:56:24;;;;;;;67.65;21.73;;;8.70;99.90;;;;;;4909211;28;113500;-67
2021/12/14 06:58:54;;;;;;;62.40;20.63;;;8.70;99.90;;;;;;4928004;28;112952;-67
2021/12/14 07:01:28;;;;;;;69.38;21.23;;;8.60;99.90;;;;;;4940414;28;113111;-68
2021/12/14 07:04:40;;;;;;;61.65;20.17;;;8.60;99.90;;;;;;4927863;28;112539;-69
2021/12/14 07:07:09;;;;;;;71.40;18.60;;;8.60;99.90;;;;;;4937702;22;114997;-65
2021/12/14 07:09:50;;;;;;;62.58;19.83;;;8.60;99.90;;;;;;4960726;28;112660;-64
2021/12/14 07:12:34;;;;;;;57.88;17.58;;;8.50;99.90;;;;;;4944364;28;114415;-64
2021/12/14 07:15:18;;;;;;;53.00;18.27;;;8.50;99.90;;;;;;4963456;22;116183;-68
2021/12/14 07:17:54;;;;;;;55.15;18.48;;;8.40;99.90;;;;;;4918650;28;114578;-67
2021/12/14 07:20:33;;;;;;;52.08;17.48;;;8.40;99.90;;;;;;4906640;28;112489;-66
2021/12/14 07:23:04;;;;;;;69.05;19.50;;;8.40;99.90;;;;;;4934288;28;113481;-67
2021/12/14 07:25:39;;;;;;;60.75;20.42;;;8.40;99.90;;;;;;4923729;28;112816;-68
2021/12/14 07:28:06;;;;;;;51.28;21.65;;;8.40;99.90;;;;;;4929518;28;113503;-67
2021/12/14 07:30:39;;;;;;;70.80;23.80;;;8.50;99.90;;;;;;4925500;28;112619;-67
2021/12/14 07:33:15;;;;;;;64.45;26.27;;;8.50;99.90;;;;;;4933337;28;114174;-67
2021/12/14 07:35:54;;;;;;;61.47;26.60;;;8.50;99.90;;;;;;4921475;28;113650;-67
2021/12/14 07:38:40;;;;;;;72.78;23.90;;;8.50;99.90;;;;;;4937447;28;112976;-67
2021/12/14 07:41:27;;;;;;;58.25;24.38;;;8.50;99.90;;;;;;4922618;28;112665;-67
2021/12/14 07:44:00;;;;;;;66.03;25.63;;;8.60;99.90;;;;;;4923740;28;114492;-65
2021/12/14 07:46:56;;;;;;;60.05;23.77;;;8.60;99.90;;;;;;4929510;28;115610;-68
2021/12/14 07:49:35;;;;;;;54.35;22.67;;;8.60;99.90;;;;;;4912934;28;112964;-68
2021/12/14 07:52:09;;;;;;;45.47;20.73;;;8.70;99.90;;;;;;4922853;28;112484;-67
2021/12/14 07:55:01;;;;;;;60.30;21.73;;;8.70;99.90;;;;;;4921833;28;113009;-67
2021/12/14 07:57:30;;;;;;;55.90;22.73;;;8.70;99.90;;;;;;4930885;28;112628;-69
2021/12/14 08:00:13;;;;;;;43.00;21.50;;;8.70;99.90;;;;;;4925762;28;112416;-68
2021/12/14 08:02:43;;;;;;;59.05;21.92;;;8.70;99.90;;;;;;4918136;28;113513;-67
2021/12/14 08:05:15;;;;;;;44.58;19.35;;;8.70;99.90;;;;;;4924809;28;113916;-65
2021/12/14 08:08:20;;;;;;;43.47;20.30;;;8.80;99.90;;;;;;4936743;28;115683;-66
2021/12/14 08:11:08;;;;;;;40.88;17.63;;;8.80;99.90;;;;;;4919872;28;114420;-67
2021/12/14 08:13:44;;;;;;;42.35;17.15;;;8.80;99.90;;;;;;4937483;28;114324;-68
2021/12/14 08:16:10;;;;;;;40.65;15.23;;;8.80;99.90;;;;;;4928603;28;113118;-68
2021/12/14 08:18:37;;;;;;;37.85;14.63;;;8.80;99.90;;;;;;4920783;28;112592;-67
2021/12/14 08:21:10;;;;;;;28.42;14.40;;;8.90;99.90;;;;;;4931660;28;112794;-67
2021/12/14 08:23:42;;;;;;;26.77;12.77;;;8.90;99.90;;;;;;4947117;28;112602;-66
2021/12/14 08:26:12;;;;;;;28.83;11.85;;;8.90;99.90;;;;;;4943322;28;113742;-64
2021/12/14 08:28:49;;;;;;;26.42;11.63;;;9.00;99.90;;;;;;4916949;28;115495;-67
2021/12/14 08:31:17;;;;;;;29.73;13.02;;;9.00;99.90;;;;;;4928016;28;112485;-67
2021/12/14 08:33:43;;;;;;;31.45;12.98;;;9.00;99.90;;;;;;4939885;28;113670;-66
2021/12/14 08:36:13;;;;;;;26.38;10.93;;;9.10;99.90;;;;;;4940757;28;112863;-65
2021/12/14 08:38:39;;;;;;;30.23;12.25;;;9.10;99.90;;;;;;4941426;28;112729;-65
2021/12/14 08:41:22;;;;;;;28.63;11.70;;;9.20;99.90;;;;;;4923546;28;113064;-64
2021/12/14 08:43:50;;;;;;;25.92;11.30;;;9.20;99.90;;;;;;4942157;28;112896;-66
2021/12/14 08:46:29;;;;;;;25.73;12.27;;;9.20;99.90;;;;;;4923505;28;115420;-66
2021/12/14 08:48:59;;;;;;;25.88;12.35;;;9.30;99.90;;;;;;4941784;28;113181;-68
2021/12/14 08:51:32;;;;;;;22.65;9.85;;;9.30;99.90;;;;;;4942161;28;112437;-66
2021/12/14 08:54:21;;;;;;;25.17;10.30;;;9.40;99.90;;;;;;4942664;28;112936;-67
2021/12/14 08:56:59;;;;;;;25.70;10.57;;;9.40;99.90;;;;;;4930082;28;114504;-67
2021/12/14 08:59:26;;;;;;;21.65;10.38;;;9.50;99.90;;;;;;4948327;28;113571;-65
2021/12/14 09:01:53;;;;;;;21.23;10.00;;;9.50;99.90;;;;;;4957691;28;112582;-66
2021/12/14 09:04:35;;;;;;;19.45;9.07;;;9.60;99.90;;;;;;4942196;28;114289;-66
2021/12/14 09:07:23;;;;;;;18.98;8.98;;;9.60;99.90;;;;;;4946437;28;113595;-66
2021/12/14 09:09:49;;;;;;;24.88;10.00;;;9.60;99.90;;;;;;4930423;28;113572;-64
2021/12/14 09:12:24;;;;;;;17.42;8.60;;;9.70;99.90;;;;;;4939209;28;113081;-67
2021/12/14 09:14:53;;;;;;;21.95;9.63;;;9.80;99.90;;;;;;4925321;28;112761;-65
2021/12/14 09:17:22;;;;;;;16.92;8.77;;;9.90;99.90;;;;;;4942514;28;114083;-65
2021/12/14 09:19:53;;;;;;;26.63;10.20;;;10.00;99.90;;;;;;4947246;28;113533;-65
2021/12/14 09:22:27;;;;;;;18.75;8.20;;;10.10;99.90;;;;;;4918945;28;113098;-67
2021/12/14 09:24:54;;;;;;;15.27;7.30;;;10.10;99.90;;;;;;4955731;28;112832;-67
2021/12/14 09:27:24;;;;;;;16.42;7.97;;;10.30;99.90;;;;;;4938315;28;114230;-65
2021/12/14 09:29:51;;;;;;;18.00;8.48;;;10.30;99.90;;;;;;4947472;28;113063;-65
2021/12/14 09:32:24;;;;;;;18.42;7.93;;;10.40;99.90;;;;;;4951764;28;113514;-67
2021/12/14 09:34:50;;;;;;;14.60;7.15;;;10.50;99.90;;;;;;4949055;28;112560;-62
2021/12/14 09:37:17;;;;;;;18.98;8.48;;;10.50;99.90;;;;;;4945374;28;113086;-66
2021/12/14 09:39:49;;;;;;;14.20;7.45;;;10.60;99.90;;;;;;4947291;28;112944;-65
2021/12/14 09:42:20;;;;;;;15.60;8.52;;;10.70;99.90;;;;;;4948609;28;112667;-65
2021/12/14 09:44:48;;;;;;;21.42;7.35;;;10.70;99.90;;;;;;4946507;28;112670;-65
2021/12/14 09:47:20;;;;;;;18.00;7.75;;;10.70;99.90;;;;;;4926268;28;113403;-65
2021/12/14 09:49:49;;;;;;;19.50;7.70;;;10.80;99.90;;;;;;4932502;28;112780;-65
2021/12/14 09:52:31;;;;;;;12.23;6.85;;;10.90;99.90;;;;;;4950967;28;112805;-67
2021/12/14 09:54:59;;;;;;;18.67;6.75;;;10.90;99.90;;;;;;4954231;28;113016;-66
2021/12/14 09:57:38;;;;;;;26.50;8.13;;;11.00;99.90;;;;;;4943399;28;115304;-67
2021/12/14 10:00:20;;;;;;;9.95;5.95;;;10.90;99.90;;;;;;5009356;22;114415;-62
2021/12/14 10:02:48;;;;;;;15.85;7.88;;;11.10;99.90;;;;;;4964164;28;113240;-63
2021/12/14 10:05:26;;;;;;;15.50;6.63;;;11.20;99.90;;;;;;4966044;28;112470;-61
2021/12/14 10:07:54;;;;;;;14.35;6.35;;;11.30;99.90;;;;;;4966898;28;113679;-64
2021/12/14 10:10:20;;;;;;;20.20;7.32;;;11.30;99.90;;;;;;4966516;28;113653;-62
2021/12/14 10:12:51;;;;;;;16.33;6.15;;;11.30;99.90;;;;;;4960861;28;113261;-62
2021/12/14 10:15:32;;;;;;;16.17;7.10;;;11.30;99.90;;;;;;4967855;28;113540;-61
2021/12/14 10:18:04;;;;;;;21.27;7.35;;;11.30;99.90;;;;;;4967361;28;115215;-63
2021/12/14 10:20:44;;;;;;;15.98;7.25;;;11.50;99.90;;;;;;4958540;28;113516;-61
2021/12/14 10:23:11;;;;;;;19.30;7.13;;;11.50;99.90;;;;;;4958122;28;112817;-62
2021/12/14 10:25:38;;;;;;;21.70;8.18;;;11.60;99.90;;;;;;4964151;28;112525;-62
2021/12/14 10:28:05;;;;;;;18.02;8.27;;;11.60;99.90;;;;;;4963822;28;112915;-64
2021/12/14 10:30:38;;;;;;;25.40;9.35;;;11.60;99.90;;;;;;4963040;28;113473;-62
2021/12/14 10:33:06;;;;;;;17.67;10.38;;;11.60;99.90;;;;;;4961706;28;112641;-63
2021/12/14 10:35:42;;;;;;;24.65;10.98;;;11.70;99.90;;;;;;4947726;28;113283;-62
2021/12/14 10:38:26;;;;;;;28.90;15.93;;;11.70;99.90;;;;;;4948787;28;114433;-61
2021/12/14 10:43:47;;;;;;;29.83;17.08;;;11.80;99.90;;;;;;4949701;28;112736;-62
2021/12/14 10:46:22;;;;;;;32.50;16.77;;;11.80;99.90;;;;;;4962816;28;113041;-62
2021/12/14 10:48:48;;;;;;;31.70;17.63;;;11.90;99.90;;;;;;4949448;28;113387;-61
2021/12/14 10:51:17;;;;;;;37.35;18.38;;;12.00;99.90;;;;;;4961144;28;112738;-63
2021/12/14 10:53:47;;;;;;;27.47;17.57;;;12.10;99.90;;;;;;4951525;28;112598;-62
2021/12/14 10:56:20;;;;;;;30.70;15.32;;;12.20;99.90;;;;;;4961762;28;112732;-61
2021/12/14 10:58:51;;;;;;;30.65;15.65;;;12.30;99.90;;;;;;4952568;28;116248;-61
2021/12/14 11:01:23;;;;;;;25.30;11.48;;;12.40;99.90;;;;;;4961680;28;113209;-60
2021/12/14 11:04:00;;;;;;;24.30;11.90;;;12.50;99.90;;;;;;4962718;28;112606;-62
2021/12/14 11:06:29;;;;;;;23.77;11.02;;;12.50;99.90;;;;;;4962877;28;112494;-61
2021/12/14 11:09:40;;;;;;;32.28;11.00;;;12.50;99.90;;;;;;4948251;28;114883;-60
2021/12/14 11:12:03;;;;;;;26.05;9.82;;;12.50;99.90;;;;;;4948718;28;113974;-60
2021/12/14 11:14:34;;;;;;;25.10;11.98;;;12.50;99.90;;;;;;4945736;28;112514;-59
2021/12/14 11:19:55;;;;;;;24.03;10.00;;;12.60;99.90;;;;;;4961939;28;112966;-61
2021/12/14 11:22:29;;;;;;;25.85;11.43;;;12.70;99.90;;;;;;4951457;28;115628;-61
2021/12/14 11:25:11;;;;;;;24.50;10.55;;;12.80;99.90;;;;;;4948261;28;112619;-62
2021/12/14 11:27:44;;;;;;;24.98;10.07;;;13.00;99.90;;;;;;4947901;28;114575;-62
2021/12/14 11:30:50;;;;;;;22.35;10.70;;;13.20;99.90;;;;;;4953816;28;113212;-60
2021/12/14 11:33:28;;;;;;;26.02;10.93;;;13.40;99.90;;;;;;4957210;28;113090;-64
2021/12/14 11:36:14;;;;;;;20.10;10.27;;;13.70;99.90;;;;;;4961319;28;112824;-63
2021/12/14 11:39:03;;;;;;;21.60;10.07;;;14.10;99.90;;;;;;4962387;28;112532;-60
2021/12/14 11:41:43;;;;;;;20.50;8.05;;;14.50;99.90;;;;;;4940600;28;113196;-64
2021/12/14 11:44:30;;;;;;;15.20;7.20;;;15.00;99.90;;;;;;4962260;28;114284;-62
2021/12/14 11:47:22;;;;;;;28.98;7.65;;;15.60;99.90;;;;;;4962366;28;112481;-61
2021/12/14 11:50:16;;;;;;;24.10;8.27;;;16.20;99.90;;;;;;4931646;28;113022;-62
2021/12/14 11:53:06;;;;;;;27.88;7.68;;;17.10;99.90;;;;;;4961907;28;114443;-61
2021/12/14 11:55:38;;;;;;;28.80;10.20;;;17.70;99.90;;;;;;4964777;28;113725;-64
2021/12/14 11:58:19;;;;;;;18.52;7.53;;;18.10;99.90;;;;;;4972994;28;112452;-61
2021/12/14 12:01:23;;;;;;;14.82;6.20;;;18.50;99.90;;;;;;4957291;28;112548;-63
2021/12/14 12:04:32;;;;;;;20.50;11.25;;;18.90;99.90;;;;;;4954679;28;113127;-61
2021/12/14 12:09:48;;;;;;;11.40;4.53;;;20.10;99.90;;;;;;4959814;28;112830;-61
2021/12/14 12:12:19;;;;;;;14.40;5.40;;;20.40;99.90;;;;;;4955560;28;112788;-63
2021/12/14 12:15:08;;;;;;;21.15;4.93;;;20.80;99.90;;;;;;4955195;28;114082;-62
2021/12/14 12:17:45;;;;;;;8.25;3.78;;;21.30;99.90;;;;;;4952234;28;113021;-59
2021/12/14 12:20:23;;;;;;;9.90;4.78;;;21.60;99.90;;;;;;4955365;28;112315;-64
2021/12/14 12:23:10;;;;;;;12.35;4.68;;;22.00;99.90;;;;;;4955013;28;112552;-65
2021/12/14 12:25:48;;;;;;;7.70;4.03;;;22.30;99.90;;;;;;4934050;28;114472;-62
2021/12/14 12:28:21;;;;;;;18.90;5.55;;;22.60;99.90;;;;;;4953789;28;112487;-62
2021/12/14 12:30:55;;;;;;;15.52;4.82;;;22.10;99.90;;;;;;4959429;22;116150;-64
2021/12/14 12:33:37;;;;;;;12.98;4.50;;;21.90;99.90;;;;;;4938485;28;112748;-64
2021/12/14 12:36:26;;;;;;;15.07;5.53;;;22.40;99.90;;;;;;4946333;28;113222;-65
2021/12/14 12:39:10;;;;;;;19.57;6.27;;;23.00;99.60;;;;;;4957045;28;112665;-63
2021/12/14 12:41:49;;;;;;;17.85;5.85;;;23.70;99.40;;;;;;4969797;28;113069;-64
2021/12/14 12:44:20;;;;;;;21.60;10.95;;;24.10;96.20;;;;;;4965431;28;113224;-63
2021/12/14 12:47:02;;;;;;;18.13;6.90;;;24.60;94.80;;;;;;4965379;28;113852;-64
2021/12/14 12:49:32;;;;;;;19.52;6.97;;;24.70;94.10;;;;;;4968780;28;114247;-60
2021/12/14 12:52:09;;;;;;;16.05;6.93;;;25.10;92.10;;;;;;4968372;28;112548;-61
2021/12/14 12:55:04;;;;;;;18.77;6.97;;;25.40;91.90;;;;;;4966232;28;112335;-62
2021/12/14 12:58:02;;;;;;;13.35;6.60;;;25.80;90.60;;;;;;4969770;28;114422;-62
2021/12/14 13:00:47;;;;;;;26.85;6.93;;;26.00;89.20;;;;;;4961042;28;113118;-63
2021/12/14 13:03:24;;;;;;;13.02;5.28;;;26.50;87.50;;;;;;4961538;28;112605;-63
2021/12/14 13:06:06;;;;;;;13.23;5.35;;;26.60;84.40;;;;;;4947413;28;112992;-61
2021/12/14 13:08:34;;;;;;;11.63;5.30;;;26.60;81.70;;;;;;4960589;28;113234;-62
2021/12/14 13:11:07;;;;;;;16.23;7.32;;;26.40;80.90;;;;;;4960292;28;112713;-59
2021/12/14 13:13:50;;;;;;;17.42;5.85;;;25.90;80.60;;;;;;4960199;28;113276;-65
2021/12/14 13:16:21;;;;;;;19.08;5.95;;;25.30;82.00;;;;;;4999536;22;113079;-62
2021/12/14 13:18:49;;;;;;;15.88;6.53;;;25.10;81.70;;;;;;4967729;28;114137;-59
2021/12/14 13:21:34;;;;;;;17.27;7.30;;;25.50;81.60;;;;;;4968852;22;112892;-61
2021/12/14 13:24:17;;;;;;;12.90;6.47;;;26.00;80.20;;;;;;4953263;28;112441;-63
2021/12/14 13:26:43;;;;;;;14.07;7.38;;;26.00;78.20;;;;;;4967790;28;112570;-64
2021/12/14 13:29:12;;;;;;;16.80;7.45;;;26.20;79.00;;;;;;4960097;28;116379;-62
2021/12/14 13:31:41;;;;;;;25.77;9.10;;;26.70;77.60;;;;;;4980759;28;113240;-63
2021/12/14 13:34:13;;;;;;;21.67;7.73;;;27.20;77.70;;;;;;4980987;28;112324;-63
2021/12/14 13:36:40;;;;;;;15.57;6.72;;;27.80;75.80;;;;;;4963426;28;112510;-63
2021/12/14 13:39:08;;;;;;;25.42;9.55;;;28.30;75.20;;;;;;4962189;28;114128;-67
2021/12/14 13:41:53;;;;;;;25.50;8.43;;;28.90;74.10;;;;;;4960346;28;112514;-65
2021/12/14 13:44:18;;;;;;;25.48;9.13;;;29.50;71.30;;;;;;4943027;28;112444;-70